createdAt,value
2019-05-07T00:00:43.873Z,3.70
2019-05-07T00:03:12.462Z,3.70
2019-05-07T00:05:42.758Z,3.70
2019-05-07T00:08:12.221Z,3.60
2019-05-07T00:10:42.479Z,3.60
2019-05-07T00:13:12.815Z,3.60
2019-05-07T00:15:41.896Z,3.60
2019-05-07T00:18:12.593Z,3.50
2019-05-07T00:20:42.281Z,3.50
2019-05-07T00:23:13.071Z,3.50
2019-05-07T00:25:42.153Z,3.50
2019-05-07T00:28:12.215Z,3.40
2019-05-07T00:30:42.490Z,3.40
2019-05-07T00:33:13.138Z,3.40
2019-05-07T00:35:43.071Z,3.30
2019-05-07T00:38:13.161Z,3.30
2019-05-07T00:40:59.287Z,3.30
2019-05-07T00:43:29.280Z,3.20
2019-05-07T00:46:02.357Z,3.20
2019-05-07T00:48:32.896Z,3.10
2019-05-07T00:51:18.986Z,3.10
2019-05-07T00:53:47.430Z,3.10
2019-05-07T00:56:15.944Z,3.10
2019-05-07T00:58:44.391Z,3.10
2019-05-07T01:01:13.139Z,3.00
2019-05-07T01:03:42.402Z,3.00
2019-05-07T01:06:12.876Z,2.90
2019-05-07T01:08:43.068Z,2.90
2019-05-07T01:11:13.193Z,2.90
2019-05-07T01:13:43.148Z,2.80
2019-05-07T01:16:12.891Z,2.80
2019-05-07T01:18:42.171Z,2.80
2019-05-07T01:21:13.063Z,2.70
2019-05-07T01:23:42.796Z,2.70
2019-05-07T01:26:12.465Z,2.70
2019-05-07T01:28:59.286Z,2.70
2019-05-07T01:31:34.274Z,2.70
2019-05-07T01:34:22.940Z,2.70
2019-05-07T01:36:52.342Z,2.70
2019-05-07T01:39:23.022Z,2.70
2019-05-07T01:41:52.425Z,2.60
2019-05-07T01:44:22.808Z,2.70
2019-05-07T01:46:52.888Z,2.70
2019-05-07T01:49:23.838Z,2.70
2019-05-07T01:51:52.974Z,2.70
2019-05-07T01:54:23.700Z,2.60
2019-05-07T01:56:52.255Z,2.60
2019-05-07T01:59:22.451Z,2.60
2019-05-07T02:01:52.825Z,2.60
2019-05-07T02:04:35.032Z,2.50
2019-05-07T02:07:05.107Z,2.50
2019-05-07T02:09:44.122Z,2.50
2019-05-07T02:12:17.147Z,2.50
2019-05-07T02:14:45.569Z,2.50
2019-05-07T02:17:14.019Z,2.40
2019-05-07T02:19:42.591Z,2.40
2019-05-07T02:22:13.262Z,2.40
2019-05-07T02:24:43.253Z,2.40
2019-05-07T02:27:12.627Z,2.40
2019-05-07T02:29:43.064Z,2.30
2019-05-07T02:32:13.287Z,2.30
2019-05-07T02:34:44.129Z,2.30
2019-05-07T02:37:13.376Z,2.20
2019-05-07T02:39:46.344Z,2.20
2019-05-07T02:42:14.864Z,2.20
2019-05-07T02:45:04.170Z,2.10
2019-05-07T02:47:33.515Z,2.10
2019-05-07T02:50:03.754Z,2.00
2019-05-07T02:52:53.321Z,2.00
2019-05-07T02:55:23.165Z,2.10
2019-05-07T02:57:54.046Z,2.00
2019-05-07T03:00:24.107Z,2.00
2019-05-07T03:02:53.144Z,2.00
2019-05-07T03:05:23.090Z,1.90
2019-05-07T03:07:53.617Z,1.90
2019-05-07T03:10:23.734Z,1.80
2019-05-07T03:12:53.691Z,1.80
2019-05-07T03:15:24.222Z,1.80
2019-05-07T03:17:53.763Z,1.70
2019-05-07T03:20:24.128Z,1.70
2019-05-07T03:22:53.893Z,1.70
2019-05-07T03:25:39.116Z,1.70
2019-05-07T03:28:07.541Z,1.70
2019-05-07T03:30:45.057Z,1.70
2019-05-07T03:33:16.080Z,1.70
2019-05-07T03:35:46.775Z,1.70
2019-05-07T03:38:14.035Z,1.60
2019-05-07T03:40:44.834Z,1.60
2019-05-07T03:43:13.795Z,1.50
2019-05-07T03:45:50.164Z,1.50
2019-05-07T03:48:23.425Z,1.50
2019-05-07T03:50:52.899Z,1.50
2019-05-07T03:53:23.170Z,1.50
2019-05-07T03:55:53.691Z,1.40
2019-05-07T03:58:23.500Z,1.40
2019-05-07T04:00:53.665Z,1.40
2019-05-07T04:03:24.535Z,1.40
2019-05-07T04:05:53.166Z,1.40
2019-05-07T04:08:23.622Z,1.30
2019-05-07T04:10:53.850Z,1.40
2019-05-07T04:13:23.840Z,1.40
2019-05-07T04:15:52.735Z,1.50
2019-05-07T04:18:23.688Z,1.50
2019-05-07T04:20:53.971Z,1.50
2019-05-07T04:23:23.362Z,1.50
2019-05-07T04:25:54.312Z,1.50
2019-05-07T04:28:43.663Z,1.50
2019-05-07T04:31:14.162Z,1.60
2019-05-07T04:33:44.027Z,1.60
2019-05-07T04:36:14.422Z,1.60
2019-05-07T04:38:43.987Z,1.60
2019-05-07T04:41:13.874Z,1.60
2019-05-07T04:43:44.183Z,1.70
2019-05-07T04:46:14.384Z,1.70
2019-05-07T04:48:43.841Z,1.80
2019-05-07T04:51:14.372Z,1.80
2019-05-07T04:53:43.146Z,1.90
2019-05-07T04:56:14.053Z,1.90
2019-05-07T04:58:43.299Z,2.00
2019-05-07T05:01:13.983Z,2.10
2019-05-07T05:03:43.925Z,2.10
2019-05-07T05:06:13.687Z,2.20
2019-05-07T05:08:43.500Z,2.40
2019-05-07T05:11:12.875Z,2.40
2019-05-07T05:13:44.363Z,2.70
2019-05-07T05:16:27.104Z,3.20
2019-05-07T05:18:56.643Z,4.00
2019-05-07T05:21:32.394Z,4.70
2019-05-07T05:24:07.962Z,5.40
2019-05-07T05:26:36.415Z,6.10
2019-05-07T05:29:06.116Z,6.80
2019-05-07T05:31:34.557Z,7.40
2019-05-07T05:34:02.998Z,8.10
2019-05-07T05:36:33.047Z,8.70
2019-05-07T05:39:02.541Z,9.30
2019-05-07T05:41:34.136Z,9.80
2019-05-07T05:44:12.712Z,10.20
2019-05-07T05:46:42.867Z,10.70
2019-05-07T05:49:11.857Z,11.20
2019-05-07T05:51:45.313Z,11.70
2019-05-07T05:54:31.847Z,12.10
2019-05-07T05:57:02.662Z,12.50
2019-05-07T05:59:48.155Z,12.90
2019-05-07T06:02:12.174Z,13.20
2019-05-07T06:04:48.148Z,13.50
2019-05-07T06:07:27.304Z,13.80
2019-05-07T06:10:02.566Z,14.10
2019-05-07T06:12:43.979Z,14.40
2019-05-07T06:15:14.197Z,14.60
2019-05-07T06:17:56.395Z,14.80
2019-05-07T06:20:42.790Z,14.90
2019-05-07T06:23:22.427Z,15.50
2019-05-07T06:25:49.083Z,15.60
2019-05-07T06:28:17.535Z,15.70
2019-05-07T06:30:45.966Z,16.10
2019-05-07T06:33:14.420Z,16.20
2019-05-07T06:35:43.060Z,16.30
2019-05-07T06:38:12.601Z,16.00
2019-05-07T06:40:57.921Z,16.40
2019-05-07T06:43:32.743Z,16.40
2019-05-07T06:46:04.682Z,16.80
2019-05-07T06:48:41.902Z,16.70
2019-05-07T06:51:03.297Z,16.50
2019-05-07T06:53:33.658Z,16.70
2019-05-07T06:56:04.196Z,16.60
2019-05-07T06:58:34.419Z,16.60
2019-05-07T07:01:22.806Z,16.60
2019-05-07T07:03:59.255Z,16.70
2019-05-07T07:06:33.277Z,16.70
2019-05-07T07:09:15.545Z,16.30
2019-05-07T07:11:45.744Z,16.10
2019-05-07T07:14:15.871Z,16.00
2019-05-07T07:16:44.438Z,15.80
2019-05-07T07:19:12.883Z,15.50
2019-05-07T07:21:42.169Z,15.10
2019-05-07T07:24:12.680Z,14.90
2019-05-07T07:26:42.186Z,14.80
2019-05-07T07:29:12.792Z,14.80
2019-05-07T07:31:42.969Z,14.40
2019-05-07T07:34:12.941Z,14.40
2019-05-07T07:36:43.363Z,14.20
2019-05-07T07:39:12.721Z,14.10
2019-05-07T07:41:52.330Z,14.10
2019-05-07T07:44:25.059Z,14.10
2019-05-07T07:46:53.502Z,14.10
2019-05-07T07:49:22.306Z,14.10
2019-05-07T07:51:52.565Z,14.10
2019-05-07T07:54:22.618Z,14.00
2019-05-07T07:56:56.195Z,13.90
2019-05-07T07:59:27.540Z,13.60
2019-05-07T08:02:01.884Z,13.70
2019-05-07T08:04:32.023Z,13.70
2019-05-07T08:07:05.250Z,13.50
2019-05-07T08:09:35.440Z,13.50
2019-05-07T08:12:04.719Z,13.30
2019-05-07T08:14:33.564Z,13.20
2019-05-07T08:17:03.803Z,13.00
2019-05-07T08:19:32.901Z,13.00
2019-05-07T08:22:02.795Z,13.10
2019-05-07T08:24:32.167Z,13.10
2019-05-07T08:27:02.290Z,13.20
2019-05-07T08:29:32.474Z,13.20
2019-05-07T08:32:03.736Z,13.30
2019-05-07T08:34:33.804Z,13.30
2019-05-07T08:37:08.420Z,13.30
2019-05-07T08:39:36.853Z,13.60
2019-05-07T08:42:05.436Z,13.70
2019-05-07T08:44:47.624Z,13.90
2019-05-07T08:47:17.716Z,14.00
2019-05-07T08:49:46.154Z,14.10
2019-05-07T08:52:14.684Z,14.10
2019-05-07T08:54:43.144Z,14.10
2019-05-07T08:57:12.201Z,14.10
2019-05-07T08:59:58.419Z,14.10
2019-05-07T09:02:17.290Z,14.20
2019-05-07T09:04:45.810Z,14.10
2019-05-07T09:07:14.480Z,14.10
2019-05-07T09:09:43.010Z,14.10
2019-05-07T09:12:12.421Z,13.80
2019-05-07T09:14:42.621Z,13.70
2019-05-07T09:17:12.812Z,13.60
2019-05-07T09:19:50.883Z,13.60
2019-05-07T09:22:12.742Z,13.30
2019-05-07T09:24:42.420Z,13.00
2019-05-07T09:27:12.874Z,13.00
2019-05-07T09:29:52.090Z,12.90
2019-05-07T09:32:25.108Z,12.80
2019-05-07T09:34:58.020Z,12.60
2019-05-07T09:37:32.541Z,12.50
2019-05-07T09:40:02.824Z,12.40
2019-05-07T09:42:33.123Z,12.30
2019-05-07T09:45:01.954Z,12.30
2019-05-07T09:47:32.548Z,12.20
2019-05-07T09:50:07.000Z,12.40
2019-05-07T09:52:32.147Z,12.40
2019-05-07T09:55:11.065Z,12.50
2019-05-07T09:57:32.465Z,12.60
2019-05-07T10:00:02.261Z,12.50
2019-05-07T10:02:31.986Z,12.60
2019-05-07T10:05:02.356Z,12.60
2019-05-07T10:07:32.419Z,12.60
2019-05-07T10:10:03.131Z,12.70
2019-05-07T10:12:35.896Z,12.60
2019-05-07T10:15:06.719Z,12.70
2019-05-07T10:17:42.653Z,12.90
2019-05-07T10:20:21.114Z,13.00
2019-05-07T10:22:42.877Z,13.20
2019-05-07T10:25:12.231Z,13.30
2019-05-07T10:27:43.215Z,13.50
2019-05-07T10:30:12.857Z,13.40
2019-05-07T10:32:42.640Z,13.50
2019-05-07T10:35:12.822Z,13.60
2019-05-07T10:37:43.023Z,13.60
2019-05-07T10:40:12.404Z,13.80
2019-05-07T10:42:43.025Z,13.80
2019-05-07T10:45:17.303Z,14.00
2019-05-07T10:47:47.438Z,14.00
2019-05-07T10:50:36.476Z,14.00
2019-05-07T10:52:57.142Z,14.00
2019-05-07T10:55:25.590Z,13.90
2019-05-07T10:57:54.048Z,14.00
2019-05-07T11:00:25.216Z,14.00
2019-05-07T11:02:53.732Z,13.90
2019-05-07T11:05:22.239Z,13.70
2019-05-07T11:07:50.855Z,13.60
2019-05-07T11:10:21.810Z,13.40
2019-05-07T11:12:51.580Z,13.40
2019-05-07T11:15:21.619Z,13.30
2019-05-07T11:18:06.839Z,13.30
2019-05-07T11:20:46.476Z,13.30
2019-05-07T11:23:05.503Z,13.20
2019-05-07T11:25:34.208Z,13.20
2019-05-07T11:28:02.927Z,13.00
2019-05-07T11:30:32.097Z,13.00
2019-05-07T11:33:02.494Z,12.90
2019-05-07T11:35:31.924Z,12.80
2019-05-07T11:38:02.614Z,12.60
2019-05-07T11:40:51.798Z,12.40
2019-05-07T11:43:24.631Z,12.40
2019-05-07T11:46:03.559Z,12.30
2019-05-07T11:48:36.185Z,12.40
2019-05-07T11:51:05.072Z,12.40
2019-05-07T11:53:35.187Z,12.60
2019-05-07T11:56:03.612Z,12.70
2019-05-07T11:58:32.621Z,12.80
2019-05-07T12:01:04.035Z,12.80
2019-05-07T12:03:32.637Z,12.90
2019-05-07T12:06:02.018Z,12.90
2019-05-07T12:08:40.924Z,12.80
2019-05-07T12:11:02.383Z,12.80
2019-05-07T12:13:32.372Z,12.80
2019-05-07T12:16:03.056Z,12.60
2019-05-07T12:18:31.993Z,12.70
2019-05-07T12:21:03.759Z,12.80
2019-05-07T12:23:33.021Z,12.70
2019-05-07T12:26:02.257Z,12.70
2019-05-07T12:28:33.399Z,12.70
2019-05-07T12:31:06.246Z,12.70
2019-05-07T12:33:45.079Z,12.80
2019-05-07T12:36:15.258Z,13.00
2019-05-07T12:38:43.759Z,12.90
2019-05-07T12:41:33.190Z,13.10
2019-05-07T12:44:04.167Z,13.20
2019-05-07T12:46:33.689Z,13.40
2019-05-07T12:49:03.183Z,13.40
2019-05-07T12:51:37.937Z,13.40
2019-05-07T12:54:08.859Z,13.60
2019-05-07T12:56:37.298Z,13.70
2019-05-07T12:59:05.888Z,13.80
2019-05-07T13:01:38.518Z,14.10
2019-05-07T13:04:08.607Z,14.20
2019-05-07T13:06:38.688Z,14.40
2019-05-07T13:09:07.198Z,14.60
2019-05-07T13:11:35.688Z,14.80
2019-05-07T13:14:04.385Z,14.90
2019-05-07T13:16:32.896Z,14.90
2019-05-07T13:19:01.883Z,14.90
2019-05-07T13:21:31.947Z,14.80
2019-05-07T13:24:02.605Z,14.90
2019-05-07T13:26:32.187Z,14.90
2019-05-07T13:29:02.492Z,15.00
2019-05-07T13:31:32.860Z,15.00
2019-05-07T13:34:02.998Z,15.10
2019-05-07T13:36:33.576Z,15.20
2019-05-07T13:39:06.423Z,15.00
2019-05-07T13:41:36.657Z,15.30
2019-05-07T13:44:24.760Z,15.40
2019-05-07T13:46:55.326Z,15.40
2019-05-07T13:49:23.991Z,15.70
2019-05-07T13:52:03.197Z,15.80
2019-05-07T13:54:22.910Z,16.00
2019-05-07T13:56:52.550Z,16.00
2019-05-07T13:59:22.380Z,15.90
2019-05-07T14:01:52.595Z,15.70
2019-05-07T14:04:22.293Z,15.20
2019-05-07T14:06:52.960Z,15.20
2019-05-07T14:09:24.377Z,15.40
2019-05-07T14:11:54.623Z,15.60
2019-05-07T14:14:23.148Z,15.40
2019-05-07T14:16:52.959Z,15.40
2019-05-07T14:19:22.526Z,15.20
2019-05-07T14:21:52.576Z,15.40
2019-05-07T14:24:22.330Z,15.50
2019-05-07T14:26:52.797Z,15.50
2019-05-07T14:29:24.472Z,15.60
2019-05-07T14:31:58.043Z,15.50
2019-05-07T14:34:34.356Z,15.60
2019-05-07T14:37:14.510Z,15.40
2019-05-07T14:39:42.968Z,15.40
2019-05-07T14:42:15.852Z,15.50
2019-05-07T14:44:47.534Z,15.40
2019-05-07T14:47:19.280Z,15.30
2019-05-07T14:49:48.353Z,15.20
2019-05-07T14:52:28.972Z,15.10
2019-05-07T14:54:47.167Z,15.10
2019-05-07T14:57:15.714Z,15.10
2019-05-07T14:59:44.694Z,15.20
2019-05-07T15:02:13.387Z,15.10
2019-05-07T15:04:41.994Z,15.10
2019-05-07T15:07:12.017Z,15.10
2019-05-07T15:09:42.395Z,15.00
2019-05-07T15:12:12.428Z,15.00
2019-05-07T15:14:42.181Z,14.90
2019-05-07T15:17:15.436Z,14.60
2019-05-07T15:19:43.884Z,14.10
2019-05-07T15:22:26.072Z,13.60
2019-05-07T15:24:54.604Z,13.10
2019-05-07T15:27:23.669Z,12.80
2019-05-07T15:29:52.656Z,12.40
2019-05-07T15:32:21.807Z,12.10
2019-05-07T15:34:52.536Z,11.90
2019-05-07T15:37:20.793Z,11.70
2019-05-07T15:39:49.258Z,11.60
2019-05-07T15:42:17.722Z,11.40
2019-05-07T15:44:46.244Z,11.30
2019-05-07T15:47:19.066Z,11.30
2019-05-07T15:49:47.510Z,11.20
2019-05-07T15:52:22.044Z,11.20
2019-05-07T15:54:52.099Z,11.20
2019-05-07T15:57:24.643Z,11.30
2019-05-07T15:59:55.332Z,11.30
2019-05-07T16:02:28.118Z,11.30
2019-05-07T16:04:57.870Z,11.30
2019-05-07T16:07:26.295Z,11.30
2019-05-07T16:09:54.762Z,11.20
2019-05-07T16:12:23.695Z,11.10
2019-05-07T16:14:55.049Z,11.00
2019-05-07T16:17:25.186Z,10.90
2019-05-07T16:19:55.171Z,10.80
2019-05-07T16:22:25.536Z,10.70
2019-05-07T16:24:54.050Z,10.70
2019-05-07T16:27:22.537Z,10.60
2019-05-07T16:29:52.685Z,10.60
2019-05-07T16:32:23.933Z,10.50
2019-05-07T16:34:52.762Z,10.50
2019-05-07T16:37:21.700Z,10.50
2019-05-07T16:39:50.284Z,10.50
2019-05-07T16:42:21.801Z,10.50
2019-05-07T16:44:52.170Z,10.50
2019-05-07T16:47:22.683Z,10.50
2019-05-07T16:49:50.735Z,10.50
2019-05-07T16:52:19.178Z,10.50
2019-05-07T16:54:47.636Z,10.50
2019-05-07T16:57:33.939Z,10.40
2019-05-07T17:00:02.991Z,10.40
2019-05-07T17:02:49.101Z,10.30
2019-05-07T17:05:22.722Z,10.30
2019-05-07T17:07:55.187Z,10.30
2019-05-07T17:10:23.618Z,10.30
2019-05-07T17:12:52.549Z,10.40
2019-05-07T17:15:24.307Z,10.40
2019-05-07T17:18:02.820Z,10.40
2019-05-07T17:20:32.839Z,10.40
2019-05-07T17:23:02.998Z,10.50
2019-05-07T17:25:37.346Z,10.50
2019-05-07T17:28:07.526Z,10.50
2019-05-07T17:30:37.762Z,10.50
2019-05-07T17:33:06.861Z,10.50
2019-05-07T17:35:36.847Z,10.50
2019-05-07T17:38:09.614Z,10.50
2019-05-07T17:40:35.492Z,10.60
2019-05-07T17:43:04.106Z,10.60
2019-05-07T17:45:35.674Z,10.70
2019-05-07T17:48:04.490Z,10.70
2019-05-07T17:50:34.658Z,10.80
2019-05-07T17:53:03.107Z,10.90
2019-05-07T17:55:33.198Z,10.90
2019-05-07T17:58:02.046Z,11.00
2019-05-07T18:00:32.718Z,11.10
2019-05-07T18:03:18.710Z,11.10
2019-05-07T18:05:47.141Z,11.10
2019-05-07T18:08:15.588Z,11.10
2019-05-07T18:10:44.027Z,11.00
2019-05-07T18:13:12.478Z,11.00
2019-05-07T18:15:42.787Z,10.90
2019-05-07T18:18:12.861Z,10.90
2019-05-07T18:20:42.200Z,10.80
2019-05-07T18:23:16.834Z,10.80
2019-05-07T18:25:42.820Z,10.70
2019-05-07T18:28:12.318Z,10.70
2019-05-07T18:30:41.171Z,10.60
2019-05-07T18:33:13.797Z,10.60
2019-05-07T18:35:43.159Z,10.60
2019-05-07T18:38:11.951Z,10.50
2019-05-07T18:40:42.124Z,10.40
2019-05-07T18:43:12.237Z,10.40
2019-05-07T18:45:42.448Z,10.30
2019-05-07T18:48:13.180Z,10.30
2019-05-07T18:50:42.081Z,10.30
2019-05-07T18:53:12.246Z,10.20
2019-05-07T18:55:42.373Z,10.20
2019-05-07T18:58:13.201Z,10.20
2019-05-07T19:00:42.925Z,10.10
2019-05-07T19:03:12.708Z,10.10
2019-05-07T19:05:43.878Z,10.10
2019-05-07T19:08:13.506Z,10.00
2019-05-07T19:10:42.920Z,10.00
2019-05-07T19:13:11.589Z,10.00
2019-05-07T19:15:43.132Z,9.90
2019-05-07T19:18:12.172Z,9.80
2019-05-07T19:20:42.273Z,9.80
2019-05-07T19:23:13.755Z,9.70
2019-05-07T19:25:42.679Z,9.70
2019-05-07T19:28:15.075Z,9.60
2019-05-07T19:30:43.386Z,9.60
2019-05-07T19:33:12.290Z,9.50
2019-05-07T19:35:41.900Z,9.50
2019-05-07T19:38:10.546Z,9.40
2019-05-07T19:40:38.992Z,9.40
2019-05-07T19:43:09.124Z,9.30
2019-05-07T19:45:37.563Z,9.20
2019-05-07T19:48:06.020Z,9.10
2019-05-07T19:50:34.466Z,9.10
2019-05-07T19:53:03.057Z,9.00
2019-05-07T19:55:33.184Z,9.00
2019-05-07T19:58:03.270Z,8.90
2019-05-07T20:00:32.751Z,8.90
2019-05-07T20:03:07.439Z,8.80
2019-05-07T20:05:37.372Z,8.80
2019-05-07T20:08:06.097Z,8.80
2019-05-07T20:10:37.715Z,8.70
2019-05-07T20:13:06.158Z,8.70
2019-05-07T20:15:35.062Z,8.70
2019-05-07T20:18:06.298Z,8.60
2019-05-07T20:20:34.751Z,8.60
2019-05-07T20:23:03.212Z,8.50
2019-05-07T20:25:33.202Z,8.50
2019-05-07T20:28:02.259Z,8.50
2019-05-07T20:30:32.806Z,8.40
2019-05-07T20:33:02.951Z,8.40
2019-05-07T20:35:32.569Z,8.30
2019-05-07T20:38:02.928Z,8.30
2019-05-07T20:40:32.463Z,8.20
2019-05-07T20:43:01.970Z,8.20
2019-05-07T20:45:32.034Z,8.20
2019-05-07T20:48:02.583Z,8.10
2019-05-07T20:50:33.089Z,8.10
2019-05-07T20:53:02.039Z,8.00
2019-05-07T20:55:38.047Z,8.00
2019-05-07T20:58:06.546Z,7.90
2019-05-07T21:00:35.010Z,7.80
2019-05-07T21:03:23.867Z,7.70
2019-05-07T21:05:53.306Z,7.60
2019-05-07T21:08:22.750Z,7.60
2019-05-07T21:10:57.658Z,7.50
2019-05-07T21:13:31.392Z,7.40
2019-05-07T21:15:56.272Z,7.40
2019-05-07T21:18:24.717Z,7.30
2019-05-07T21:20:54.076Z,7.30
2019-05-07T21:23:23.391Z,7.20
2019-05-07T21:25:52.687Z,7.10
2019-05-07T21:28:21.633Z,7.10
2019-05-07T21:30:52.147Z,7.00
2019-05-07T21:33:22.620Z,6.90
2019-05-07T21:35:52.343Z,6.90
2019-05-07T21:38:22.395Z,6.80
2019-05-07T21:40:50.806Z,6.80
2019-05-07T21:43:19.232Z,6.70
2019-05-07T21:45:47.683Z,6.60
2019-05-07T21:48:16.131Z,6.60
2019-05-07T21:50:44.645Z,6.60
2019-05-07T21:53:22.743Z,6.50
2019-05-07T21:56:03.054Z,6.50
2019-05-07T21:58:48.166Z,6.40
2019-05-07T22:01:18.325Z,6.40
2019-05-07T22:03:52.401Z,6.30
2019-05-07T22:06:22.748Z,6.30
2019-05-07T22:08:54.460Z,6.20
2019-05-07T22:11:22.992Z,6.20
2019-05-07T22:13:57.672Z,6.10
2019-05-07T22:16:26.120Z,6.10
2019-05-07T22:18:54.578Z,6.00
2019-05-07T22:21:23.015Z,6.00
2019-05-07T22:23:59.694Z,5.90
2019-05-07T22:26:28.148Z,5.90
2019-05-07T22:28:56.595Z,5.80
2019-05-07T22:31:32.519Z,5.80
2019-05-07T22:34:22.229Z,5.80
2019-05-07T22:36:52.483Z,5.70
2019-05-07T22:39:22.087Z,5.70
2019-05-07T22:41:50.694Z,5.70
2019-05-07T22:44:19.148Z,5.60
2019-05-07T22:46:47.631Z,5.50
2019-05-07T22:49:16.058Z,5.50
2019-05-07T22:51:45.683Z,5.50
2019-05-07T22:54:14.132Z,5.40
2019-05-07T22:56:59.210Z,5.40
2019-05-07T22:59:27.655Z,5.40
2019-05-07T23:01:56.103Z,5.30
2019-05-07T23:04:24.551Z,5.30
2019-05-07T23:06:53.041Z,5.30
2019-05-07T23:09:22.392Z,5.30
2019-05-07T23:11:52.587Z,5.20
2019-05-07T23:14:22.579Z,5.20
2019-05-07T23:16:52.645Z,5.20
2019-05-07T23:19:22.118Z,5.10
2019-05-07T23:21:52.095Z,5.10
2019-05-07T23:24:22.570Z,5.10
2019-05-07T23:26:53.279Z,5.10
2019-05-07T23:29:22.474Z,5.00
2019-05-07T23:31:52.786Z,5.00
2019-05-07T23:34:22.072Z,5.00
2019-05-07T23:36:53.119Z,4.90
2019-05-07T23:39:22.829Z,4.90
2019-05-07T23:41:58.793Z,4.90
2019-05-07T23:44:27.230Z,4.80
2019-05-07T23:46:55.666Z,4.80
2019-05-07T23:49:24.122Z,4.80
2019-05-07T23:51:53.227Z,4.80
2019-05-07T23:54:23.050Z,4.70
2019-05-07T23:57:05.477Z,4.70
2019-05-07T23:59:22.364Z,4.70
